sensor_id;sensor_type;location;lat;lon;timestamp;P1;durP1;ratioP1;P2;durP2;ratioP2
20306;SDS011;10312;52.434;13.206;2022-10-22T00:02:18;13.57;;;9.38;;
20306;SDS011;10312;52.434;13.206;2022-10-22T00:04:46;14.10;;;9.05;;
20306;SDS011;10312;52.434;13.206;2022-10-22T00:07:14;12.48;;;9.20;;
20306;SDS011;10312;52.434;13.206;2022-10-22T00:09:42;11.95;;;8.95;;
20306;SDS011;10312;52.434;13.206;2022-10-22T00:12:08;11.63;;;8.98;;
20306;SDS011;10312;52.434;13.206;2022-10-22T00:14:36;13.25;;;9.05;;
20306;SDS011;10312;52.434;13.206;2022-10-22T00:17:03;14.88;;;9.40;;
20306;SDS011;10312;52.434;13.206;2022-10-22T00:19:36;14.90;;;9.60;;
20306;SDS011;10312;52.434;13.206;2022-10-22T00:22:03;13.07;;;9.32;;
20306;SDS011;10312;52.434;13.206;2022-10-22T00:24:33;13.68;;;9.45;;
20306;SDS011;10312;52.434;13.206;2022-10-22T00:27:00;14.80;;;9.75;;
20306;SDS011;10312;52.434;13.206;2022-10-22T00:29:27;14.20;;;9.93;;
20306;SDS011;10312;52.434;13.206;2022-10-22T00:31:55;17.35;;;10.25;;
20306;SDS011;10312;52.434;13.206;2022-10-22T00:34:22;13.10;;;9.52;;
20306;SDS011;10312;52.434;13.206;2022-10-22T00:36:49;13.40;;;9.35;;
20306;SDS011;10312;52.434;13.206;2022-10-22T00:39:17;15.10;;;10.45;;
20306;SDS011;10312;52.434;13.206;2022-10-22T00:41:46;15.27;;;9.40;;
20306;SDS011;10312;52.434;13.206;2022-10-22T00:47:19;15.45;;;9.73;;
20306;SDS011;10312;52.434;13.206;2022-10-22T00:49:46;12.23;;;9.20;;
20306;SDS011;10312;52.434;13.206;2022-10-22T00:52:13;13.95;;;9.80;;
20306;SDS011;10312;52.434;13.206;2022-10-22T00:54:40;15.77;;;9.88;;
20306;SDS011;10312;52.434;13.206;2022-10-22T00:57:07;15.10;;;9.38;;
20306;SDS011;10312;52.434;13.206;2022-10-22T00:59:35;13.15;;;9.27;;
20306;SDS011;10312;52.434;13.206;2022-10-22T01:02:02;11.70;;;8.40;;
20306;SDS011;10312;52.434;13.206;2022-10-22T01:04:29;13.23;;;9.38;;
20306;SDS011;10312;52.434;13.206;2022-10-22T01:06:56;12.45;;;8.95;;
20306;SDS011;10312;52.434;13.206;2022-10-22T01:09:26;14.38;;;9.73;;
20306;SDS011;10312;52.434;13.206;2022-10-22T01:26:05;21.30;;;10.07;;
20306;SDS011;10312;52.434;13.206;2022-10-22T01:31:17;14.45;;;9.30;;
20306;SDS011;10312;52.434;13.206;2022-10-22T01:33:45;13.57;;;8.90;;
20306;SDS011;10312;52.434;13.206;2022-10-22T01:36:14;12.88;;;9.45;;
20306;SDS011;10312;52.434;13.206;2022-10-22T01:38:41;12.27;;;9.20;;
20306;SDS011;10312;52.434;13.206;2022-10-22T01:41:08;11.50;;;8.57;;
20306;SDS011;10312;52.434;13.206;2022-10-22T01:43:36;12.77;;;9.27;;
20306;SDS011;10312;52.434;13.206;2022-10-22T01:46:03;12.60;;;9.35;;
20306;SDS011;10312;52.434;13.206;2022-10-22T01:48:42;15.18;;;9.60;;
20306;SDS011;10312;52.434;13.206;2022-10-22T01:51:24;11.15;;;8.52;;
20306;SDS011;10312;52.434;13.206;2022-10-22T02:00:19;12.65;;;9.10;;
20306;SDS011;10312;52.434;13.206;2022-10-22T02:02:54;11.18;;;8.10;;
20306;SDS011;10312;52.434;13.206;2022-10-22T02:08:00;10.10;;;7.43;;
20306;SDS011;10312;52.434;13.206;2022-10-22T02:10:28;14.25;;;9.60;;
20306;SDS011;10312;52.434;13.206;2022-10-22T02:12:56;13.95;;;9.63;;
20306;SDS011;10312;52.434;13.206;2022-10-22T02:15:24;13.32;;;8.65;;
20306;SDS011;10312;52.434;13.206;2022-10-22T02:17:52;11.30;;;8.55;;
20306;SDS011;10312;52.434;13.206;2022-10-22T02:20:37;14.80;;;8.70;;
20306;SDS011;10312;52.434;13.206;2022-10-22T02:23:07;12.52;;;8.15;;
20306;SDS011;10312;52.434;13.206;2022-10-22T02:25:36;12.82;;;8.73;;
20306;SDS011;10312;52.434;13.206;2022-10-22T02:30:56;11.57;;;8.20;;
20306;SDS011;10312;52.434;13.206;2022-10-22T02:33:27;11.65;;;8.32;;
20306;SDS011;10312;52.434;13.206;2022-10-22T02:35:55;13.27;;;8.40;;
20306;SDS011;10312;52.434;13.206;2022-10-22T02:38:23;12.70;;;9.27;;
20306;SDS011;10312;52.434;13.206;2022-10-22T02:40:51;11.23;;;8.15;;
20306;SDS011;10312;52.434;13.206;2022-10-22T02:43:18;11.10;;;7.82;;
20306;SDS011;10312;52.434;13.206;2022-10-22T02:45:45;11.85;;;8.18;;
20306;SDS011;10312;52.434;13.206;2022-10-22T02:48:11;11.18;;;7.20;;
20306;SDS011;10312;52.434;13.206;2022-10-22T02:50:38;11.43;;;8.02;;
20306;SDS011;10312;52.434;13.206;2022-10-22T02:53:05;9.85;;;7.10;;
20306;SDS011;10312;52.434;13.206;2022-10-22T02:55:32;13.00;;;7.63;;
20306;SDS011;10312;52.434;13.206;2022-10-22T02:57:58;10.90;;;8.05;;
20306;SDS011;10312;52.434;13.206;2022-10-22T03:00:25;16.88;;;7.85;;
20306;SDS011;10312;52.434;13.206;2022-10-22T03:02:52;12.50;;;8.18;;
20306;SDS011;10312;52.434;13.206;2022-10-22T03:05:18;13.18;;;8.40;;
20306;SDS011;10312;52.434;13.206;2022-10-22T03:07:45;11.50;;;8.05;;
20306;SDS011;10312;52.434;13.206;2022-10-22T03:10:12;12.70;;;8.57;;
20306;SDS011;10312;52.434;13.206;2022-10-22T03:12:39;14.18;;;8.45;;
20306;SDS011;10312;52.434;13.206;2022-10-22T03:15:05;13.10;;;8.82;;
20306;SDS011;10312;52.434;13.206;2022-10-22T03:17:32;11.05;;;8.07;;
20306;SDS011;10312;52.434;13.206;2022-10-22T03:19:59;11.98;;;8.07;;
20306;SDS011;10312;52.434;13.206;2022-10-22T03:22:26;13.07;;;8.18;;
20306;SDS011;10312;52.434;13.206;2022-10-22T03:24:56;10.55;;;7.82;;
20306;SDS011;10312;52.434;13.206;2022-10-22T03:27:25;12.90;;;8.43;;
20306;SDS011;10312;52.434;13.206;2022-10-22T03:29:53;11.82;;;7.70;;
20306;SDS011;10312;52.434;13.206;2022-10-22T03:32:21;13.80;;;8.95;;
20306;SDS011;10312;52.434;13.206;2022-10-22T03:34:47;10.60;;;7.38;;
20306;SDS011;10312;52.434;13.206;2022-10-22T03:37:14;11.88;;;8.32;;
20306;SDS011;10312;52.434;13.206;2022-10-22T03:39:41;12.07;;;8.07;;
20306;SDS011;10312;52.434;13.206;2022-10-22T03:42:07;12.13;;;7.82;;
20306;SDS011;10312;52.434;13.206;2022-10-22T03:44:35;12.68;;;8.05;;
20306;SDS011;10312;52.434;13.206;2022-10-22T03:47:02;11.82;;;8.25;;
20306;SDS011;10312;52.434;13.206;2022-10-22T03:49:29;10.68;;;7.95;;
20306;SDS011;10312;52.434;13.206;2022-10-22T03:51:56;12.75;;;8.65;;
20306;SDS011;10312;52.434;13.206;2022-10-22T03:54:23;10.60;;;8.05;;
20306;SDS011;10312;52.434;13.206;2022-10-22T03:56:49;13.57;;;8.65;;
20306;SDS011;10312;52.434;13.206;2022-10-22T03:59:16;11.30;;;7.68;;
20306;SDS011;10312;52.434;13.206;2022-10-22T04:01:43;14.82;;;8.27;;
20306;SDS011;10312;52.434;13.206;2022-10-22T04:04:10;15.95;;;8.77;;
20306;SDS011;10312;52.434;13.206;2022-10-22T04:06:36;12.82;;;7.93;;
20306;SDS011;10312;52.434;13.206;2022-10-22T04:09:03;12.63;;;8.30;;
20306;SDS011;10312;52.434;13.206;2022-10-22T04:11:30;10.10;;;7.50;;
20306;SDS011;10312;52.434;13.206;2022-10-22T04:13:56;10.43;;;7.72;;
20306;SDS011;10312;52.434;13.206;2022-10-22T04:16:23;18.13;;;8.55;;
20306;SDS011;10312;52.434;13.206;2022-10-22T04:18:55;10.15;;;7.55;;
20306;SDS011;10312;52.434;13.206;2022-10-22T04:21:22;11.70;;;7.95;;
20306;SDS011;10312;52.434;13.206;2022-10-22T04:23:50;12.13;;;7.55;;
20306;SDS011;10312;52.434;13.206;2022-10-22T04:26:18;10.77;;;7.53;;
20306;SDS011;10312;52.434;13.206;2022-10-22T04:28:45;11.93;;;7.57;;
20306;SDS011;10312;52.434;13.206;2022-10-22T04:31:13;13.50;;;8.45;;
20306;SDS011;10312;52.434;13.206;2022-10-22T04:33:41;12.10;;;8.38;;
20306;SDS011;10312;52.434;13.206;2022-10-22T04:36:09;12.35;;;8.63;;
20306;SDS011;10312;52.434;13.206;2022-10-22T04:38:38;12.15;;;8.32;;
20306;SDS011;10312;52.434;13.206;2022-10-22T04:41:09;15.13;;;8.73;;
20306;SDS011;10312;52.434;13.206;2022-10-22T04:43:36;13.93;;;8.30;;
20306;SDS011;10312;52.434;13.206;2022-10-22T04:46:04;12.00;;;8.48;;
20306;SDS011;10312;52.434;13.206;2022-10-22T04:48:31;11.48;;;7.93;;
20306;SDS011;10312;52.434;13.206;2022-10-22T04:50:57;17.17;;;8.80;;
20306;SDS011;10312;52.434;13.206;2022-10-22T04:53:26;11.85;;;8.32;;
20306;SDS011;10312;52.434;13.206;2022-10-22T04:55:53;10.85;;;8.10;;
20306;SDS011;10312;52.434;13.206;2022-10-22T04:58:20;10.50;;;8.00;;
20306;SDS011;10312;52.434;13.206;2022-10-22T05:00:47;12.02;;;8.32;;
20306;SDS011;10312;52.434;13.206;2022-10-22T05:03:13;12.30;;;8.40;;
20306;SDS011;10312;52.434;13.206;2022-10-22T05:05:40;11.48;;;8.10;;
20306;SDS011;10312;52.434;13.206;2022-10-22T05:08:07;13.45;;;7.78;;
20306;SDS011;10312;52.434;13.206;2022-10-22T05:10:33;11.02;;;7.43;;
20306;SDS011;10312;52.434;13.206;2022-10-22T05:13:00;13.13;;;8.18;;
20306;SDS011;10312;52.434;13.206;2022-10-22T05:15:27;11.57;;;8.00;;
20306;SDS011;10312;52.434;13.206;2022-10-22T05:17:53;12.07;;;8.63;;
20306;SDS011;10312;52.434;13.206;2022-10-22T05:20:20;11.82;;;8.65;;
20306;SDS011;10312;52.434;13.206;2022-10-22T05:22:47;10.95;;;7.55;;
20306;SDS011;10312;52.434;13.206;2022-10-22T05:25:14;12.18;;;7.57;;
20306;SDS011;10312;52.434;13.206;2022-10-22T05:27:41;11.43;;;8.07;;
20306;SDS011;10312;52.434;13.206;2022-10-22T05:30:08;11.40;;;7.60;;
20306;SDS011;10312;52.434;13.206;2022-10-22T05:32:35;10.13;;;7.18;;
20306;SDS011;10312;52.434;13.206;2022-10-22T05:35:02;11.23;;;7.90;;
20306;SDS011;10312;52.434;13.206;2022-10-22T05:37:28;10.38;;;7.95;;
20306;SDS011;10312;52.434;13.206;2022-10-22T05:39:55;11.30;;;7.60;;
20306;SDS011;10312;52.434;13.206;2022-10-22T05:42:42;12.38;;;8.07;;
20306;SDS011;10312;52.434;13.206;2022-10-22T05:45:09;13.85;;;7.70;;
20306;SDS011;10312;52.434;13.206;2022-10-22T05:47:36;14.32;;;8.13;;
20306;SDS011;10312;52.434;13.206;2022-10-22T05:50:02;11.80;;;7.95;;
20306;SDS011;10312;52.434;13.206;2022-10-22T05:52:29;12.27;;;8.13;;
20306;SDS011;10312;52.434;13.206;2022-10-22T05:54:56;14.35;;;8.25;;
20306;SDS011;10312;52.434;13.206;2022-10-22T05:57:22;11.43;;;7.68;;
20306;SDS011;10312;52.434;13.206;2022-10-22T05:59:49;14.80;;;7.90;;
20306;SDS011;10312;52.434;13.206;2022-10-22T06:02:16;14.10;;;8.70;;
20306;SDS011;10312;52.434;13.206;2022-10-22T06:04:43;12.32;;;7.82;;
20306;SDS011;10312;52.434;13.206;2022-10-22T06:07:10;12.85;;;8.20;;
20306;SDS011;10312;52.434;13.206;2022-10-22T06:09:40;12.60;;;8.43;;
20306;SDS011;10312;52.434;13.206;2022-10-22T06:12:10;14.95;;;7.88;;
20306;SDS011;10312;52.434;13.206;2022-10-22T06:14:39;14.65;;;8.77;;
20306;SDS011;10312;52.434;13.206;2022-10-22T06:17:05;12.95;;;8.52;;
20306;SDS011;10312;52.434;13.206;2022-10-22T06:19:32;11.82;;;8.10;;
20306;SDS011;10312;52.434;13.206;2022-10-22T06:21:59;13.38;;;8.65;;
20306;SDS011;10312;52.434;13.206;2022-10-22T06:24:26;14.05;;;8.13;;
20306;SDS011;10312;52.434;13.206;2022-10-22T06:26:52;11.65;;;8.57;;
20306;SDS011;10312;52.434;13.206;2022-10-22T06:29:19;16.80;;;8.60;;
20306;SDS011;10312;52.434;13.206;2022-10-22T06:31:46;10.85;;;7.68;;
20306;SDS011;10312;52.434;13.206;2022-10-22T06:34:14;12.25;;;8.05;;
20306;SDS011;10312;52.434;13.206;2022-10-22T06:36:41;13.07;;;8.50;;
20306;SDS011;10312;52.434;13.206;2022-10-22T06:39:13;11.43;;;8.23;;
20306;SDS011;10312;52.434;13.206;2022-10-22T06:41:42;11.40;;;7.95;;
20306;SDS011;10312;52.434;13.206;2022-10-22T06:44:12;13.65;;;8.35;;
20306;SDS011;10312;52.434;13.206;2022-10-22T06:46:42;11.55;;;7.95;;
20306;SDS011;10312;52.434;13.206;2022-10-22T06:49:13;11.25;;;7.32;;
20306;SDS011;10312;52.434;13.206;2022-10-22T06:51:40;14.20;;;8.38;;
20306;SDS011;10312;52.434;13.206;2022-10-22T06:54:08;12.10;;;7.72;;
20306;SDS011;10312;52.434;13.206;2022-10-22T06:56:35;11.45;;;7.65;;
20306;SDS011;10312;52.434;13.206;2022-10-22T06:59:02;13.85;;;8.57;;
20306;SDS011;10312;52.434;13.206;2022-10-22T07:01:30;12.48;;;8.27;;
20306;SDS011;10312;52.434;13.206;2022-10-22T07:03:58;10.48;;;7.80;;
20306;SDS011;10312;52.434;13.206;2022-10-22T07:06:26;12.68;;;7.93;;
20306;SDS011;10312;52.434;13.206;2022-10-22T07:08:54;12.07;;;8.25;;
20306;SDS011;10312;52.434;13.206;2022-10-22T07:11:23;15.77;;;9.52;;
20306;SDS011;10312;52.434;13.206;2022-10-22T07:13:52;12.23;;;8.63;;
20306;SDS011;10312;52.434;13.206;2022-10-22T07:16:20;11.63;;;8.70;;
20306;SDS011;10312;52.434;13.206;2022-10-22T07:18:47;12.82;;;8.77;;
20306;SDS011;10312;52.434;13.206;2022-10-22T07:21:15;16.00;;;8.38;;
20306;SDS011;10312;52.434;13.206;2022-10-22T07:23:46;12.15;;;8.35;;
20306;SDS011;10312;52.434;13.206;2022-10-22T07:26:14;11.77;;;8.30;;
20306;SDS011;10312;52.434;13.206;2022-10-22T07:28:42;12.25;;;8.90;;
20306;SDS011;10312;52.434;13.206;2022-10-22T07:31:10;15.60;;;9.13;;
20306;SDS011;10312;52.434;13.206;2022-10-22T07:33:39;12.70;;;9.07;;
20306;SDS011;10312;52.434;13.206;2022-10-22T07:36:07;15.18;;;9.10;;
20306;SDS011;10312;52.434;13.206;2022-10-22T07:38:36;13.38;;;8.48;;
20306;SDS011;10312;52.434;13.206;2022-10-22T07:41:03;12.35;;;8.95;;
20306;SDS011;10312;52.434;13.206;2022-10-22T07:43:30;12.98;;;9.55;;
20306;SDS011;10312;52.434;13.206;2022-10-22T07:45:56;19.33;;;10.40;;
20306;SDS011;10312;52.434;13.206;2022-10-22T07:48:25;15.48;;;9.85;;
20306;SDS011;10312;52.434;13.206;2022-10-22T07:50:52;15.68;;;9.57;;
20306;SDS011;10312;52.434;13.206;2022-10-22T07:53:19;15.02;;;9.10;;
20306;SDS011;10312;52.434;13.206;2022-10-22T07:55:47;14.23;;;9.40;;
20306;SDS011;10312;52.434;13.206;2022-10-22T07:58:15;14.10;;;9.55;;
20306;SDS011;10312;52.434;13.206;2022-10-22T08:00:42;16.08;;;9.45;;
20306;SDS011;10312;52.434;13.206;2022-10-22T08:03:10;15.15;;;9.00;;
20306;SDS011;10312;52.434;13.206;2022-10-22T08:05:37;13.60;;;9.88;;
20306;SDS011;10312;52.434;13.206;2022-10-22T08:08:05;13.57;;;9.98;;
20306;SDS011;10312;52.434;13.206;2022-10-22T08:10:32;16.10;;;9.93;;
20306;SDS011;10312;52.434;13.206;2022-10-22T08:13:03;13.73;;;9.43;;
20306;SDS011;10312;52.434;13.206;2022-10-22T08:15:30;16.02;;;9.85;;
20306;SDS011;10312;52.434;13.206;2022-10-22T08:17:57;15.40;;;9.38;;
20306;SDS011;10312;52.434;13.206;2022-10-22T08:20:24;13.02;;;9.57;;
20306;SDS011;10312;52.434;13.206;2022-10-22T08:22:51;17.77;;;9.25;;
20306;SDS011;10312;52.434;13.206;2022-10-22T08:25:18;14.20;;;10.52;;
20306;SDS011;10312;52.434;13.206;2022-10-22T08:27:45;15.50;;;10.77;;
20306;SDS011;10312;52.434;13.206;2022-10-22T08:30:12;16.20;;;10.70;;
20306;SDS011;10312;52.434;13.206;2022-10-22T08:32:39;16.40;;;10.27;;
20306;SDS011;10312;52.434;13.206;2022-10-22T08:35:07;16.52;;;11.05;;
20306;SDS011;10312;52.434;13.206;2022-10-22T08:37:34;14.80;;;10.68;;
20306;SDS011;10312;52.434;13.206;2022-10-22T08:40:01;12.90;;;10.18;;
20306;SDS011;10312;52.434;13.206;2022-10-22T08:45:17;14.65;;;9.75;;
20306;SDS011;10312;52.434;13.206;2022-10-22T08:50:33;14.93;;;10.10;;
20306;SDS011;10312;52.434;13.206;2022-10-22T08:53:04;13.85;;;9.40;;
20306;SDS011;10312;52.434;13.206;2022-10-22T08:55:36;13.52;;;9.85;;
20306;SDS011;10312;52.434;13.206;2022-10-22T08:58:19;14.98;;;9.45;;
20306;SDS011;10312;52.434;13.206;2022-10-22T09:01:27;17.08;;;10.15;;
20306;SDS011;10312;52.434;13.206;2022-10-22T09:06:29;13.10;;;10.02;;
20306;SDS011;10312;52.434;13.206;2022-10-22T09:08:58;15.98;;;10.25;;
20306;SDS011;10312;52.434;13.206;2022-10-22T09:13:53;19.35;;;9.98;;
20306;SDS011;10312;52.434;13.206;2022-10-22T09:19:38;14.02;;;10.32;;
20306;SDS011;10312;52.434;13.206;2022-10-22T09:24:44;18.13;;;10.00;;
20306;SDS011;10312;52.434;13.206;2022-10-22T09:27:17;16.35;;;10.48;;
20306;SDS011;10312;52.434;13.206;2022-10-22T09:29:46;14.95;;;10.13;;
20306;SDS011;10312;52.434;13.206;2022-10-22T09:32:14;15.32;;;11.13;;
20306;SDS011;10312;52.434;13.206;2022-10-22T09:34:48;17.52;;;9.73;;
20306;SDS011;10312;52.434;13.206;2022-10-22T09:37:16;13.77;;;10.75;;
20306;SDS011;10312;52.434;13.206;2022-10-22T09:39:45;15.05;;;10.60;;
20306;SDS011;10312;52.434;13.206;2022-10-22T09:42:14;15.85;;;9.50;;
20306;SDS011;10312;52.434;13.206;2022-10-22T09:44:41;19.77;;;9.90;;
20306;SDS011;10312;52.434;13.206;2022-10-22T09:55:41;13.95;;;10.13;;
20306;SDS011;10312;52.434;13.206;2022-10-22T09:58:16;14.73;;;9.10;;
20306;SDS011;10312;52.434;13.206;2022-10-22T10:00:53;15.52;;;9.48;;
20306;SDS011;10312;52.434;13.206;2022-10-22T10:03:23;15.90;;;10.52;;
20306;SDS011;10312;52.434;13.206;2022-10-22T10:05:56;17.30;;;8.48;;
20306;SDS011;10312;52.434;13.206;2022-10-22T10:08:31;13.05;;;9.38;;
20306;SDS011;10312;52.434;13.206;2022-10-22T10:10:59;13.27;;;8.95;;
20306;SDS011;10312;52.434;13.206;2022-10-22T10:21:50;11.82;;;8.40;;
20306;SDS011;10312;52.434;13.206;2022-10-22T10:29:31;14.13;;;8.85;;
20306;SDS011;10312;52.434;13.206;2022-10-22T10:35:14;15.63;;;8.55;;
20306;SDS011;10312;52.434;13.206;2022-10-22T10:37:52;16.65;;;9.43;;
20306;SDS011;10312;52.434;13.206;2022-10-22T10:40:39;15.02;;;8.05;;
20306;SDS011;10312;52.434;13.206;2022-10-22T10:57:00;10.27;;;7.57;;
20306;SDS011;10312;52.434;13.206;2022-10-22T11:05:35;12.80;;;6.65;;
20306;SDS011;10312;52.434;13.206;2022-10-22T11:13:13;9.98;;;5.32;;
20306;SDS011;10312;52.434;13.206;2022-10-22T11:15:40;13.70;;;6.53;;
20306;SDS011;10312;52.434;13.206;2022-10-22T11:20:47;8.57;;;5.90;;
20306;SDS011;10312;52.434;13.206;2022-10-22T11:23:21;8.63;;;5.75;;
20306;SDS011;10312;52.434;13.206;2022-10-22T11:25:53;9.10;;;5.32;;
20306;SDS011;10312;52.434;13.206;2022-10-22T11:28:31;11.30;;;6.50;;
20306;SDS011;10312;52.434;13.206;2022-10-22T11:31:00;8.52;;;5.70;;
20306;SDS011;10312;52.434;13.206;2022-10-22T11:33:53;10.88;;;6.30;;
20306;SDS011;10312;52.434;13.206;2022-10-22T11:36:30;10.90;;;6.00;;
20306;SDS011;10312;52.434;13.206;2022-10-22T11:39:26;9.65;;;5.32;;
20306;SDS011;10312;52.434;13.206;2022-10-22T11:41:56;10.75;;;4.80;;
20306;SDS011;10312;52.434;13.206;2022-10-22T11:44:24;10.45;;;4.97;;
20306;SDS011;10312;52.434;13.206;2022-10-22T11:53:02;9.88;;;4.30;;
20306;SDS011;10312;52.434;13.206;2022-10-22T11:55:32;12.80;;;4.90;;
20306;SDS011;10312;52.434;13.206;2022-10-22T12:03:39;9.60;;;4.13;;
20306;SDS011;10312;52.434;13.206;2022-10-22T12:08:41;8.77;;;4.03;;
20306;SDS011;10312;52.434;13.206;2022-10-22T12:13:54;6.03;;;3.78;;
20306;SDS011;10312;52.434;13.206;2022-10-22T12:21:50;7.13;;;3.65;;
20306;SDS011;10312;52.434;13.206;2022-10-22T12:24:20;5.82;;;3.35;;
20306;SDS011;10312;52.434;13.206;2022-10-22T12:26:49;4.97;;;2.85;;
20306;SDS011;10312;52.434;13.206;2022-10-22T12:29:19;7.65;;;3.70;;
20306;SDS011;10312;52.434;13.206;2022-10-22T12:31:52;6.35;;;2.92;;
20306;SDS011;10312;52.434;13.206;2022-10-22T12:34:20;6.07;;;2.97;;
20306;SDS011;10312;52.434;13.206;2022-10-22T12:36:50;9.73;;;3.30;;
20306;SDS011;10312;52.434;13.206;2022-10-22T12:39:24;4.63;;;2.65;;
20306;SDS011;10312;52.434;13.206;2022-10-22T12:41:52;9.10;;;2.90;;
20306;SDS011;10312;52.434;13.206;2022-10-22T12:44:19;8.63;;;3.30;;
20306;SDS011;10312;52.434;13.206;2022-10-22T12:46:46;8.02;;;3.10;;
20306;SDS011;10312;52.434;13.206;2022-10-22T12:49:22;5.57;;;2.78;;
20306;SDS011;10312;52.434;13.206;2022-10-22T12:52:05;5.90;;;3.22;;
20306;SDS011;10312;52.434;13.206;2022-10-22T12:54:38;8.23;;;3.17;;
20306;SDS011;10312;52.434;13.206;2022-10-22T12:57:05;5.05;;;2.42;;
20306;SDS011;10312;52.434;13.206;2022-10-22T12:59:36;6.53;;;3.72;;
20306;SDS011;10312;52.434;13.206;2022-10-22T13:02:10;8.70;;;2.65;;
20306;SDS011;10312;52.434;13.206;2022-10-22T13:05:01;5.25;;;2.10;;
20306;SDS011;10312;52.434;13.206;2022-10-22T13:07:37;4.22;;;2.50;;
20306;SDS011;10312;52.434;13.206;2022-10-22T13:10:16;9.93;;;3.17;;
20306;SDS011;10312;52.434;13.206;2022-10-22T13:12:48;4.10;;;2.15;;
20306;SDS011;10312;52.434;13.206;2022-10-22T13:15:38;6.35;;;2.10;;
20306;SDS011;10312;52.434;13.206;2022-10-22T13:20:56;6.68;;;2.22;;
20306;SDS011;10312;52.434;13.206;2022-10-22T13:23:28;7.00;;;1.70;;
20306;SDS011;10312;52.434;13.206;2022-10-22T13:28:22;5.55;;;1.80;;
20306;SDS011;10312;52.434;13.206;2022-10-22T13:30:59;4.53;;;1.85;;
20306;SDS011;10312;52.434;13.206;2022-10-22T13:33:34;4.80;;;1.80;;
20306;SDS011;10312;52.434;13.206;2022-10-22T13:36:03;5.57;;;2.13;;
20306;SDS011;10312;52.434;13.206;2022-10-22T13:38:31;5.13;;;2.47;;
20306;SDS011;10312;52.434;13.206;2022-10-22T13:40:57;4.82;;;1.95;;
20306;SDS011;10312;52.434;13.206;2022-10-22T13:43:25;11.13;;;2.00;;
20306;SDS011;10312;52.434;13.206;2022-10-22T13:45:53;4.57;;;1.90;;
20306;SDS011;10312;52.434;13.206;2022-10-22T13:48:21;8.15;;;2.30;;
20306;SDS011;10312;52.434;13.206;2022-10-22T13:50:50;5.65;;;2.15;;
20306;SDS011;10312;52.434;13.206;2022-10-22T13:53:21;4.75;;;1.77;;
20306;SDS011;10312;52.434;13.206;2022-10-22T13:55:49;9.10;;;1.67;;
20306;SDS011;10312;52.434;13.206;2022-10-22T13:58:17;6.05;;;1.95;;
20306;SDS011;10312;52.434;13.206;2022-10-22T14:00:46;5.90;;;1.80;;
20306;SDS011;10312;52.434;13.206;2022-10-22T14:03:20;5.18;;;1.45;;
20306;SDS011;10312;52.434;13.206;2022-10-22T14:05:49;5.90;;;2.30;;
20306;SDS011;10312;52.434;13.206;2022-10-22T14:08:17;8.00;;;2.00;;
20306;SDS011;10312;52.434;13.206;2022-10-22T14:10:46;5.00;;;1.50;;
20306;SDS011;10312;52.434;13.206;2022-10-22T14:13:14;10.95;;;2.00;;
20306;SDS011;10312;52.434;13.206;2022-10-22T14:15:42;7.65;;;1.50;;
20306;SDS011;10312;52.434;13.206;2022-10-22T14:18:11;3.97;;;1.50;;
20306;SDS011;10312;52.434;13.206;2022-10-22T14:20:41;6.35;;;1.85;;
20306;SDS011;10312;52.434;13.206;2022-10-22T14:23:15;3.55;;;1.55;;
20306;SDS011;10312;52.434;13.206;2022-10-22T14:25:45;5.80;;;1.42;;
20306;SDS011;10312;52.434;13.206;2022-10-22T14:28:12;4.43;;;1.50;;
20306;SDS011;10312;52.434;13.206;2022-10-22T14:30:39;7.75;;;1.70;;
20306;SDS011;10312;52.434;13.206;2022-10-22T14:33:17;7.10;;;1.75;;
20306;SDS011;10312;52.434;13.206;2022-10-22T14:35:46;7.38;;;1.60;;
20306;SDS011;10312;52.434;13.206;2022-10-22T14:38:14;5.90;;;1.55;;
20306;SDS011;10312;52.434;13.206;2022-10-22T14:40:42;9.27;;;1.88;;
20306;SDS011;10312;52.434;13.206;2022-10-22T14:43:31;3.88;;;1.40;;
20306;SDS011;10312;52.434;13.206;2022-10-22T14:45:57;8.13;;;1.80;;
20306;SDS011;10312;52.434;13.206;2022-10-22T14:48:25;7.07;;;1.95;;
20306;SDS011;10312;52.434;13.206;2022-10-22T14:50:53;6.93;;;1.58;;
20306;SDS011;10312;52.434;13.206;2022-10-22T14:53:20;5.45;;;1.65;;
20306;SDS011;10312;52.434;13.206;2022-10-22T14:55:46;4.88;;;1.40;;
20306;SDS011;10312;52.434;13.206;2022-10-22T14:58:14;8.23;;;1.63;;
20306;SDS011;10312;52.434;13.206;2022-10-22T15:00:41;8.85;;;2.53;;
20306;SDS011;10312;52.434;13.206;2022-10-22T15:03:09;5.32;;;1.55;;
20306;SDS011;10312;52.434;13.206;2022-10-22T15:05:40;7.65;;;2.47;;
20306;SDS011;10312;52.434;13.206;2022-10-22T15:08:10;6.72;;;2.55;;
20306;SDS011;10312;52.434;13.206;2022-10-22T15:10:38;7.45;;;2.53;;
20306;SDS011;10312;52.434;13.206;2022-10-22T15:13:05;7.13;;;2.90;;
20306;SDS011;10312;52.434;13.206;2022-10-22T15:15:32;10.80;;;3.42;;
20306;SDS011;10312;52.434;13.206;2022-10-22T15:18:05;7.13;;;3.38;;
20306;SDS011;10312;52.434;13.206;2022-10-22T15:20:32;11.27;;;3.85;;
20306;SDS011;10312;52.434;13.206;2022-10-22T15:22:58;9.35;;;3.30;;
20306;SDS011;10312;52.434;13.206;2022-10-22T15:25:25;10.27;;;3.63;;
20306;SDS011;10312;52.434;13.206;2022-10-22T15:27:52;9.30;;;3.30;;
20306;SDS011;10312;52.434;13.206;2022-10-22T15:30:27;9.23;;;3.08;;
20306;SDS011;10312;52.434;13.206;2022-10-22T15:32:54;9.13;;;2.22;;
20306;SDS011;10312;52.434;13.206;2022-10-22T15:35:21;7.50;;;2.25;;
20306;SDS011;10312;52.434;13.206;2022-10-22T15:37:50;6.55;;;2.00;;
20306;SDS011;10312;52.434;13.206;2022-10-22T15:40:17;6.70;;;1.70;;
20306;SDS011;10312;52.434;13.206;2022-10-22T15:42:43;8.65;;;2.38;;
20306;SDS011;10312;52.434;13.206;2022-10-22T15:45:11;3.47;;;1.80;;
20306;SDS011;10312;52.434;13.206;2022-10-22T15:47:38;4.18;;;1.75;;
20306;SDS011;10312;52.434;13.206;2022-10-22T15:50:06;4.72;;;1.90;;
20306;SDS011;10312;52.434;13.206;2022-10-22T15:52:33;5.95;;;1.83;;
20306;SDS011;10312;52.434;13.206;2022-10-22T15:55:00;6.72;;;2.00;;
20306;SDS011;10312;52.434;13.206;2022-10-22T15:57:29;5.57;;;2.33;;
20306;SDS011;10312;52.434;13.206;2022-10-22T15:59:56;8.15;;;2.72;;
20306;SDS011;10312;52.434;13.206;2022-10-22T16:02:23;9.70;;;2.78;;
20306;SDS011;10312;52.434;13.206;2022-10-22T16:04:49;7.60;;;2.53;;
20306;SDS011;10312;52.434;13.206;2022-10-22T16:07:16;7.55;;;2.40;;
20306;SDS011;10312;52.434;13.206;2022-10-22T16:09:47;6.72;;;2.15;;
20306;SDS011;10312;52.434;13.206;2022-10-22T16:12:17;8.05;;;2.85;;
20306;SDS011;10312;52.434;13.206;2022-10-22T16:14:43;8.50;;;2.55;;
20306;SDS011;10312;52.434;13.206;2022-10-22T16:17:10;8.93;;;2.85;;
20306;SDS011;10312;52.434;13.206;2022-10-22T16:19:37;5.28;;;2.50;;
20306;SDS011;10312;52.434;13.206;2022-10-22T16:22:04;5.15;;;2.58;;
20306;SDS011;10312;52.434;13.206;2022-10-22T16:24:30;9.63;;;2.30;;
20306;SDS011;10312;52.434;13.206;2022-10-22T16:26:57;4.82;;;2.28;;
20306;SDS011;10312;52.434;13.206;2022-10-22T16:29:25;4.32;;;2.03;;
20306;SDS011;10312;52.434;13.206;2022-10-22T16:31:52;7.18;;;2.88;;
20306;SDS011;10312;52.434;13.206;2022-10-22T16:34:18;7.97;;;2.35;;
20306;SDS011;10312;52.434;13.206;2022-10-22T16:36:45;5.75;;;2.10;;
20306;SDS011;10312;52.434;13.206;2022-10-22T16:39:13;6.28;;;2.22;;
20306;SDS011;10312;52.434;13.206;2022-10-22T16:41:39;6.35;;;2.28;;
20306;SDS011;10312;52.434;13.206;2022-10-22T16:44:08;5.97;;;1.88;;
20306;SDS011;10312;52.434;13.206;2022-10-22T16:46:35;6.20;;;1.98;;